sensor_id;sensor_type;location;lat;lon;timestamp;P1;durP1;ratioP1;P2;durP2;ratioP2
9304;SDS011;4690;52.422;13.486;2022-10-22T00:04:00;23.70;;;16.83;;
9304;SDS011;4690;52.422;13.486;2022-10-22T00:06:26;19.75;;;15.75;;
9304;SDS011;4690;52.422;13.486;2022-10-22T00:08:52;22.23;;;15.85;;
9304;SDS011;4690;52.422;13.486;2022-10-22T00:11:18;18.83;;;14.95;;
9304;SDS011;4690;52.422;13.486;2022-10-22T00:13:45;22.00;;;15.60;;
9304;SDS011;4690;52.422;13.486;2022-10-22T00:16:12;20.27;;;15.00;;
9304;SDS011;4690;52.422;13.486;2022-10-22T00:18:38;21.52;;;15.60;;
9304;SDS011;4690;52.422;13.486;2022-10-22T00:21:04;17.55;;;14.30;;
9304;SDS011;4690;52.422;13.486;2022-10-22T00:23:31;22.70;;;16.02;;
9304;SDS011;4690;52.422;13.486;2022-10-22T00:25:58;22.95;;;16.83;;
9304;SDS011;4690;52.422;13.486;2022-10-22T00:28:23;19.92;;;15.85;;
9304;SDS011;4690;52.422;13.486;2022-10-22T00:30:56;24.67;;;16.95;;
9304;SDS011;4690;52.422;13.486;2022-10-22T00:33:24;30.58;;;18.13;;
9304;SDS011;4690;52.422;13.486;2022-10-22T00:35:51;21.10;;;15.98;;
9304;SDS011;4690;52.422;13.486;2022-10-22T00:38:17;17.20;;;14.77;;
9304;SDS011;4690;52.422;13.486;2022-10-22T00:40:43;19.17;;;14.90;;
9304;SDS011;4690;52.422;13.486;2022-10-22T00:43:10;20.75;;;16.65;;
9304;SDS011;4690;52.422;13.486;2022-10-22T00:45:39;23.13;;;16.42;;
9304;SDS011;4690;52.422;13.486;2022-10-22T00:48:06;19.90;;;15.00;;
9304;SDS011;4690;52.422;13.486;2022-10-22T00:50:37;16.95;;;14.32;;
9304;SDS011;4690;52.422;13.486;2022-10-22T00:53:25;20.90;;;16.30;;
9304;SDS011;4690;52.422;13.486;2022-10-22T00:56:02;19.70;;;15.20;;
9304;SDS011;4690;52.422;13.486;2022-10-22T00:58:29;39.70;;;18.98;;
9304;SDS011;4690;52.422;13.486;2022-10-22T01:00:59;24.30;;;15.27;;
9304;SDS011;4690;52.422;13.486;2022-10-22T01:03:26;20.10;;;14.93;;
9304;SDS011;4690;52.422;13.486;2022-10-22T01:08:25;21.80;;;16.27;;
9304;SDS011;4690;52.422;13.486;2022-10-22T01:14:28;23.70;;;15.77;;
9304;SDS011;4690;52.422;13.486;2022-10-22T01:17:08;21.52;;;15.30;;
9304;SDS011;4690;52.422;13.486;2022-10-22T01:19:58;24.98;;;16.90;;
9304;SDS011;4690;52.422;13.486;2022-10-22T01:26:05;30.90;;;18.13;;
9304;SDS011;4690;52.422;13.486;2022-10-22T01:31:54;22.70;;;15.60;;
9304;SDS011;4690;52.422;13.486;2022-10-22T01:34:27;16.52;;;14.20;;
9304;SDS011;4690;52.422;13.486;2022-10-22T01:36:55;22.25;;;16.13;;
9304;SDS011;4690;52.422;13.486;2022-10-22T01:39:24;19.73;;;16.25;;
9304;SDS011;4690;52.422;13.486;2022-10-22T01:41:55;18.77;;;15.38;;
9304;SDS011;4690;52.422;13.486;2022-10-22T01:44:32;20.65;;;15.38;;
9304;SDS011;4690;52.422;13.486;2022-10-22T01:55:25;19.30;;;14.80;;
9304;SDS011;4690;52.422;13.486;2022-10-22T02:00:59;21.63;;;15.40;;
9304;SDS011;4690;52.422;13.486;2022-10-22T02:04:06;18.52;;;15.23;;
9304;SDS011;4690;52.422;13.486;2022-10-22T02:06:44;17.52;;;15.07;;
9304;SDS011;4690;52.422;13.486;2022-10-22T02:09:16;21.10;;;16.33;;
9304;SDS011;4690;52.422;13.486;2022-10-22T02:11:46;20.10;;;15.77;;
9304;SDS011;4690;52.422;13.486;2022-10-22T02:14:14;21.35;;;16.63;;
9304;SDS011;4690;52.422;13.486;2022-10-22T02:16:44;20.45;;;16.20;;
9304;SDS011;4690;52.422;13.486;2022-10-22T02:19:18;27.50;;;17.00;;
9304;SDS011;4690;52.422;13.486;2022-10-22T02:21:49;23.52;;;15.35;;
9304;SDS011;4690;52.422;13.486;2022-10-22T02:24:16;19.15;;;15.40;;
9304;SDS011;4690;52.422;13.486;2022-10-22T02:26:50;21.25;;;15.55;;
9304;SDS011;4690;52.422;13.486;2022-10-22T02:29:35;21.67;;;16.00;;
9304;SDS011;4690;52.422;13.486;2022-10-22T02:33:07;21.63;;;15.23;;
9304;SDS011;4690;52.422;13.486;2022-10-22T02:35:37;28.92;;;16.85;;
9304;SDS011;4690;52.422;13.486;2022-10-22T02:38:06;27.45;;;17.50;;
9304;SDS011;4690;52.422;13.486;2022-10-22T02:40:34;27.05;;;17.50;;
9304;SDS011;4690;52.422;13.486;2022-10-22T02:43:02;19.40;;;15.27;;
9304;SDS011;4690;52.422;13.486;2022-10-22T02:45:30;21.30;;;16.38;;
9304;SDS011;4690;52.422;13.486;2022-10-22T02:47:57;18.67;;;15.50;;
9304;SDS011;4690;52.422;13.486;2022-10-22T02:50:23;21.58;;;15.80;;
9304;SDS011;4690;52.422;13.486;2022-10-22T02:52:49;18.35;;;14.98;;
9304;SDS011;4690;52.422;13.486;2022-10-22T02:55:14;20.13;;;15.65;;
9304;SDS011;4690;52.422;13.486;2022-10-22T02:57:40;18.37;;;15.63;;
9304;SDS011;4690;52.422;13.486;2022-10-22T03:00:07;19.75;;;15.80;;
9304;SDS011;4690;52.422;13.486;2022-10-22T03:02:35;30.83;;;17.70;;
9304;SDS011;4690;52.422;13.486;2022-10-22T03:05:01;21.02;;;15.20;;
9304;SDS011;4690;52.422;13.486;2022-10-22T03:07:27;25.70;;;17.27;;
9304;SDS011;4690;52.422;13.486;2022-10-22T03:09:53;21.37;;;15.67;;
9304;SDS011;4690;52.422;13.486;2022-10-22T03:12:18;33.55;;;17.67;;
9304;SDS011;4690;52.422;13.486;2022-10-22T03:14:44;25.63;;;16.83;;
9304;SDS011;4690;52.422;13.486;2022-10-22T03:17:10;27.63;;;16.50;;
9304;SDS011;4690;52.422;13.486;2022-10-22T03:19:36;19.13;;;15.30;;
9304;SDS011;4690;52.422;13.486;2022-10-22T03:22:03;40.08;;;18.20;;
9304;SDS011;4690;52.422;13.486;2022-10-22T03:24:37;22.45;;;15.52;;
9304;SDS011;4690;52.422;13.486;2022-10-22T03:27:06;35.78;;;18.55;;
9304;SDS011;4690;52.422;13.486;2022-10-22T03:29:35;20.10;;;14.00;;
9304;SDS011;4690;52.422;13.486;2022-10-22T03:32:04;24.37;;;14.27;;
9304;SDS011;4690;52.422;13.486;2022-10-22T03:34:30;13.70;;;11.48;;
9304;SDS011;4690;52.422;13.486;2022-10-22T03:36:56;18.60;;;13.75;;
9304;SDS011;4690;52.422;13.486;2022-10-22T03:39:25;40.85;;;17.25;;
9304;SDS011;4690;52.422;13.486;2022-10-22T03:41:55;16.57;;;12.13;;
9304;SDS011;4690;52.422;13.486;2022-10-22T03:44:22;21.27;;;14.70;;
9304;SDS011;4690;52.422;13.486;2022-10-22T03:46:48;18.33;;;14.48;;
9304;SDS011;4690;52.422;13.486;2022-10-22T03:49:15;21.85;;;15.70;;
9304;SDS011;4690;52.422;13.486;2022-10-22T03:51:40;20.63;;;14.65;;
9304;SDS011;4690;52.422;13.486;2022-10-22T03:54:06;15.05;;;12.75;;
9304;SDS011;4690;52.422;13.486;2022-10-22T03:56:32;22.00;;;15.43;;
9304;SDS011;4690;52.422;13.486;2022-10-22T03:58:58;25.80;;;16.30;;
9304;SDS011;4690;52.422;13.486;2022-10-22T04:01:25;14.93;;;12.30;;
9304;SDS011;4690;52.422;13.486;2022-10-22T04:03:53;19.85;;;14.43;;
9304;SDS011;4690;52.422;13.486;2022-10-22T04:06:20;22.05;;;15.35;;
9304;SDS011;4690;52.422;13.486;2022-10-22T04:08:46;24.80;;;15.63;;
9304;SDS011;4690;52.422;13.486;2022-10-22T04:11:13;22.83;;;16.70;;
9304;SDS011;4690;52.422;13.486;2022-10-22T04:13:40;27.75;;;16.58;;
9304;SDS011;4690;52.422;13.486;2022-10-22T04:16:07;22.27;;;15.55;;
9304;SDS011;4690;52.422;13.486;2022-10-22T04:18:39;38.93;;;18.73;;
9304;SDS011;4690;52.422;13.486;2022-10-22T04:21:06;31.65;;;17.85;;
9304;SDS011;4690;52.422;13.486;2022-10-22T04:23:34;23.58;;;16.30;;
9304;SDS011;4690;52.422;13.486;2022-10-22T04:26:01;29.75;;;17.80;;
9304;SDS011;4690;52.422;13.486;2022-10-22T04:28:32;28.75;;;17.60;;
9304;SDS011;4690;52.422;13.486;2022-10-22T04:30:59;24.73;;;17.50;;
9304;SDS011;4690;52.422;13.486;2022-10-22T04:33:24;24.13;;;16.80;;
9304;SDS011;4690;52.422;13.486;2022-10-22T04:35:50;20.17;;;15.50;;
9304;SDS011;4690;52.422;13.486;2022-10-22T04:38:16;21.10;;;15.98;;
9304;SDS011;4690;52.422;13.486;2022-10-22T04:40:42;22.60;;;16.77;;
9304;SDS011;4690;52.422;13.486;2022-10-22T04:43:07;22.08;;;16.25;;
9304;SDS011;4690;52.422;13.486;2022-10-22T04:45:33;22.03;;;16.67;;
9304;SDS011;4690;52.422;13.486;2022-10-22T04:48:00;22.97;;;15.80;;
9304;SDS011;4690;52.422;13.486;2022-10-22T04:50:26;21.90;;;16.60;;
9304;SDS011;4690;52.422;13.486;2022-10-22T04:52:52;28.13;;;16.63;;
9304;SDS011;4690;52.422;13.486;2022-10-22T04:55:17;22.03;;;16.67;;
9304;SDS011;4690;52.422;13.486;2022-10-22T04:57:43;18.33;;;14.50;;
9304;SDS011;4690;52.422;13.486;2022-10-22T05:00:09;28.25;;;17.33;;
9304;SDS011;4690;52.422;13.486;2022-10-22T05:02:35;27.93;;;17.60;;
9304;SDS011;4690;52.422;13.486;2022-10-22T05:05:01;21.10;;;14.45;;
9304;SDS011;4690;52.422;13.486;2022-10-22T05:07:27;15.87;;;12.13;;
9304;SDS011;4690;52.422;13.486;2022-10-22T05:09:53;14.10;;;11.05;;
9304;SDS011;4690;52.422;13.486;2022-10-22T05:12:19;12.80;;;11.20;;
9304;SDS011;4690;52.422;13.486;2022-10-22T05:14:44;23.03;;;14.47;;
9304;SDS011;4690;52.422;13.486;2022-10-22T05:17:10;29.93;;;16.70;;
9304;SDS011;4690;52.422;13.486;2022-10-22T05:19:36;38.00;;;18.43;;
9304;SDS011;4690;52.422;13.486;2022-10-22T05:22:02;21.08;;;15.55;;
9304;SDS011;4690;52.422;13.486;2022-10-22T05:24:30;20.93;;;15.20;;
9304;SDS011;4690;52.422;13.486;2022-10-22T05:26:58;17.87;;;14.50;;
9304;SDS011;4690;52.422;13.486;2022-10-22T05:29:25;36.20;;;17.63;;
9304;SDS011;4690;52.422;13.486;2022-10-22T05:31:51;23.07;;;15.23;;
9304;SDS011;4690;52.422;13.486;2022-10-22T05:34:17;22.83;;;17.88;;
9304;SDS011;4690;52.422;13.486;2022-10-22T05:36:44;23.42;;;15.23;;
9304;SDS011;4690;52.422;13.486;2022-10-22T05:39:09;29.38;;;17.38;;
9304;SDS011;4690;52.422;13.486;2022-10-22T05:41:36;20.37;;;14.77;;
9304;SDS011;4690;52.422;13.486;2022-10-22T05:44:02;20.33;;;15.15;;
9304;SDS011;4690;52.422;13.486;2022-10-22T05:46:29;18.23;;;15.35;;
9304;SDS011;4690;52.422;13.486;2022-10-22T05:49:01;23.92;;;16.33;;
9304;SDS011;4690;52.422;13.486;2022-10-22T05:51:30;31.73;;;17.58;;
9304;SDS011;4690;52.422;13.486;2022-10-22T05:53:59;20.30;;;16.50;;
9304;SDS011;4690;52.422;13.486;2022-10-22T05:56:29;19.63;;;16.57;;
9304;SDS011;4690;52.422;13.486;2022-10-22T05:58:56;22.63;;;16.95;;
9304;SDS011;4690;52.422;13.486;2022-10-22T06:01:23;23.07;;;16.23;;
9304;SDS011;4690;52.422;13.486;2022-10-22T06:03:56;36.87;;;19.13;;
9304;SDS011;4690;52.422;13.486;2022-10-22T06:06:40;19.60;;;16.27;;
9304;SDS011;4690;52.422;13.486;2022-10-22T06:09:17;18.47;;;15.53;;
9304;SDS011;4690;52.422;13.486;2022-10-22T06:11:51;26.13;;;17.03;;
9304;SDS011;4690;52.422;13.486;2022-10-22T06:14:17;20.30;;;15.97;;
9304;SDS011;4690;52.422;13.486;2022-10-22T06:16:44;25.55;;;16.30;;
9304;SDS011;4690;52.422;13.486;2022-10-22T06:19:11;21.13;;;15.17;;
9304;SDS011;4690;52.422;13.486;2022-10-22T06:21:39;19.43;;;15.00;;
9304;SDS011;4690;52.422;13.486;2022-10-22T06:24:05;21.43;;;15.73;;
9304;SDS011;4690;52.422;13.486;2022-10-22T06:26:32;27.00;;;17.13;;
9304;SDS011;4690;52.422;13.486;2022-10-22T06:28:58;29.87;;;17.67;;
9304;SDS011;4690;52.422;13.486;2022-10-22T06:31:24;19.43;;;15.20;;
9304;SDS011;4690;52.422;13.486;2022-10-22T06:33:51;22.60;;;15.80;;
9304;SDS011;4690;52.422;13.486;2022-10-22T06:36:18;18.23;;;14.07;;
9304;SDS011;4690;52.422;13.486;2022-10-22T06:38:52;19.03;;;14.50;;
9304;SDS011;4690;52.422;13.486;2022-10-22T06:41:20;17.80;;;15.30;;
9304;SDS011;4690;52.422;13.486;2022-10-22T06:43:46;20.90;;;15.60;;
9304;SDS011;4690;52.422;13.486;2022-10-22T06:46:13;23.27;;;16.30;;
9304;SDS011;4690;52.422;13.486;2022-10-22T06:48:42;23.27;;;15.40;;
9304;SDS011;4690;52.422;13.486;2022-10-22T06:51:12;29.27;;;17.13;;
9304;SDS011;4690;52.422;13.486;2022-10-22T06:53:38;26.23;;;16.30;;
9304;SDS011;4690;52.422;13.486;2022-10-22T06:56:05;23.10;;;15.63;;
9304;SDS011;4690;52.422;13.486;2022-10-22T06:58:37;16.63;;;13.73;;
9304;SDS011;4690;52.422;13.486;2022-10-22T07:01:04;19.47;;;15.77;;
9304;SDS011;4690;52.422;13.486;2022-10-22T07:03:32;16.97;;;13.60;;
9304;SDS011;4690;52.422;13.486;2022-10-22T07:06:03;22.95;;;15.80;;
9304;SDS011;4690;52.422;13.486;2022-10-22T07:08:33;28.30;;;16.73;;
9304;SDS011;4690;52.422;13.486;2022-10-22T07:11:06;16.75;;;14.70;;
9304;SDS011;4690;52.422;13.486;2022-10-22T07:13:36;16.93;;;15.10;;
9304;SDS011;4690;52.422;13.486;2022-10-22T07:16:03;25.58;;;15.93;;
9304;SDS011;4690;52.422;13.486;2022-10-22T07:18:31;23.93;;;15.60;;
9304;SDS011;4690;52.422;13.486;2022-10-22T07:20:58;20.23;;;14.48;;
9304;SDS011;4690;52.422;13.486;2022-10-22T07:23:25;21.67;;;15.33;;
9304;SDS011;4690;52.422;13.486;2022-10-22T07:25:52;20.00;;;13.95;;
9304;SDS011;4690;52.422;13.486;2022-10-22T07:28:18;27.10;;;16.33;;
9304;SDS011;4690;52.422;13.486;2022-10-22T07:30:44;21.38;;;14.95;;
9304;SDS011;4690;52.422;13.486;2022-10-22T07:33:09;28.10;;;17.02;;
9304;SDS011;4690;52.422;13.486;2022-10-22T07:35:35;15.25;;;13.57;;
9304;SDS011;4690;52.422;13.486;2022-10-22T07:38:03;25.40;;;16.55;;
9304;SDS011;4690;52.422;13.486;2022-10-22T07:40:30;17.05;;;13.57;;
9304;SDS011;4690;52.422;13.486;2022-10-22T07:42:57;29.73;;;17.02;;
9304;SDS011;4690;52.422;13.486;2022-10-22T07:45:22;16.50;;;13.98;;
9304;SDS011;4690;52.422;13.486;2022-10-22T07:47:48;15.10;;;13.40;;
9304;SDS011;4690;52.422;13.486;2022-10-22T07:50:14;18.07;;;13.53;;
9304;SDS011;4690;52.422;13.486;2022-10-22T07:52:40;20.40;;;15.15;;
9304;SDS011;4690;52.422;13.486;2022-10-22T07:55:06;15.45;;;13.82;;
9304;SDS011;4690;52.422;13.486;2022-10-22T07:57:32;16.48;;;13.63;;
9304;SDS011;4690;52.422;13.486;2022-10-22T07:59:59;16.98;;;13.68;;
9304;SDS011;4690;52.422;13.486;2022-10-22T08:02:25;21.48;;;14.70;;
9304;SDS011;4690;52.422;13.486;2022-10-22T08:04:50;17.17;;;14.00;;
9304;SDS011;4690;52.422;13.486;2022-10-22T08:07:16;14.95;;;13.40;;
9304;SDS011;4690;52.422;13.486;2022-10-22T08:09:43;16.23;;;12.95;;
9304;SDS011;4690;52.422;13.486;2022-10-22T08:12:08;17.65;;;13.57;;
9304;SDS011;4690;52.422;13.486;2022-10-22T08:14:34;16.45;;;13.52;;
9304;SDS011;4690;52.422;13.486;2022-10-22T08:17:00;14.73;;;13.02;;
9304;SDS011;4690;52.422;13.486;2022-10-22T08:19:26;14.82;;;13.30;;
9304;SDS011;4690;52.422;13.486;2022-10-22T08:21:53;15.18;;;13.20;;
9304;SDS011;4690;52.422;13.486;2022-10-22T08:24:19;15.60;;;13.70;;
9304;SDS011;4690;52.422;13.486;2022-10-22T08:26:45;16.13;;;14.18;;
9304;SDS011;4690;52.422;13.486;2022-10-22T08:29:11;18.92;;;14.35;;
9304;SDS011;4690;52.422;13.486;2022-10-22T08:31:37;16.60;;;13.90;;
9304;SDS011;4690;52.422;13.486;2022-10-22T08:34:03;15.50;;;13.85;;
9304;SDS011;4690;52.422;13.486;2022-10-22T08:36:29;16.45;;;14.55;;
9304;SDS011;4690;52.422;13.486;2022-10-22T08:38:55;18.88;;;14.73;;
9304;SDS011;4690;52.422;13.486;2022-10-22T08:41:21;17.17;;;14.05;;
9304;SDS011;4690;52.422;13.486;2022-10-22T08:44:01;18.27;;;14.43;;
9304;SDS011;4690;52.422;13.486;2022-10-22T08:47:08;17.08;;;13.77;;
9304;SDS011;4690;52.422;13.486;2022-10-22T08:49:48;19.85;;;14.25;;
9304;SDS011;4690;52.422;13.486;2022-10-22T08:52:15;18.83;;;13.93;;
9304;SDS011;4690;52.422;13.486;2022-10-22T09:08:48;18.67;;;12.95;;
9304;SDS011;4690;52.422;13.486;2022-10-22T09:11:24;18.70;;;14.57;;
9304;SDS011;4690;52.422;13.486;2022-10-22T09:14:00;15.18;;;13.52;;
9304;SDS011;4690;52.422;13.486;2022-10-22T09:19:11;17.27;;;13.82;;
9304;SDS011;4690;52.422;13.486;2022-10-22T09:25:19;14.15;;;12.60;;
9304;SDS011;4690;52.422;13.486;2022-10-22T09:27:51;13.90;;;12.50;;
9304;SDS011;4690;52.422;13.486;2022-10-22T09:30:22;16.23;;;12.35;;
9304;SDS011;4690;52.422;13.486;2022-10-22T09:35:32;18.30;;;12.30;;
9304;SDS011;4690;52.422;13.486;2022-10-22T09:38:08;19.02;;;13.23;;
9304;SDS011;4690;52.422;13.486;2022-10-22T09:40:55;19.65;;;14.15;;
9304;SDS011;4690;52.422;13.486;2022-10-22T09:43:22;15.02;;;12.85;;
9304;SDS011;4690;52.422;13.486;2022-10-22T09:45:54;17.88;;;15.63;;
9304;SDS011;4690;52.422;13.486;2022-10-22T09:48:36;20.27;;;14.20;;
9304;SDS011;4690;52.422;13.486;2022-10-22T09:51:23;14.68;;;12.90;;
9304;SDS011;4690;52.422;13.486;2022-10-22T09:54:02;14.35;;;12.85;;
9304;SDS011;4690;52.422;13.486;2022-10-22T09:56:50;15.98;;;12.68;;
9304;SDS011;4690;52.422;13.486;2022-10-22T09:59:28;13.98;;;12.50;;
9304;SDS011;4690;52.422;13.486;2022-10-22T10:02:12;17.95;;;12.93;;
9304;SDS011;4690;52.422;13.486;2022-10-22T10:04:47;17.00;;;13.68;;
9304;SDS011;4690;52.422;13.486;2022-10-22T10:07:20;18.08;;;13.50;;
9304;SDS011;4690;52.422;13.486;2022-10-22T10:09:52;13.93;;;12.18;;
9304;SDS011;4690;52.422;13.486;2022-10-22T10:12:21;14.75;;;13.25;;
9304;SDS011;4690;52.422;13.486;2022-10-22T10:15:19;15.90;;;12.15;;
9304;SDS011;4690;52.422;13.486;2022-10-22T10:21:11;12.88;;;10.95;;
9304;SDS011;4690;52.422;13.486;2022-10-22T10:26:53;16.00;;;11.35;;
9304;SDS011;4690;52.422;13.486;2022-10-22T10:29:46;11.00;;;9.90;;
9304;SDS011;4690;52.422;13.486;2022-10-22T10:35:30;12.23;;;10.88;;
9304;SDS011;4690;52.422;13.486;2022-10-22T10:41:32;12.18;;;10.13;;
9304;SDS011;4690;52.422;13.486;2022-10-22T10:44:37;16.80;;;12.00;;
9304;SDS011;4690;52.422;13.486;2022-10-22T10:53:49;14.68;;;11.65;;
9304;SDS011;4690;52.422;13.486;2022-10-22T10:56:51;12.35;;;11.02;;
9304;SDS011;4690;52.422;13.486;2022-10-22T11:10:45;13.80;;;11.88;;
9304;SDS011;4690;52.422;13.486;2022-10-22T11:13:18;13.80;;;11.23;;
9304;SDS011;4690;52.422;13.486;2022-10-22T11:16:01;15.15;;;10.57;;
9304;SDS011;4690;52.422;13.486;2022-10-22T11:18:34;15.07;;;12.57;;
9304;SDS011;4690;52.422;13.486;2022-10-22T11:27:05;13.43;;;11.90;;
9304;SDS011;4690;52.422;13.486;2022-10-22T11:30:04;14.95;;;12.05;;
9304;SDS011;4690;52.422;13.486;2022-10-22T11:32:38;15.65;;;12.15;;
9304;SDS011;4690;52.422;13.486;2022-10-22T11:35:08;12.77;;;11.27;;
9304;SDS011;4690;52.422;13.486;2022-10-22T11:37:41;13.68;;;11.48;;
9304;SDS011;4690;52.422;13.486;2022-10-22T11:40:21;12.70;;;10.00;;
9304;SDS011;4690;52.422;13.486;2022-10-22T11:43:02;13.07;;;10.20;;
9304;SDS011;4690;52.422;13.486;2022-10-22T11:45:34;10.35;;;9.25;;
9304;SDS011;4690;52.422;13.486;2022-10-22T12:14:15;9.10;;;7.78;;
9304;SDS011;4690;52.422;13.486;2022-10-22T12:16:44;8.38;;;7.20;;
9304;SDS011;4690;52.422;13.486;2022-10-22T12:21:48;9.77;;;7.70;;
9304;SDS011;4690;52.422;13.486;2022-10-22T12:24:24;11.07;;;7.50;;
9304;SDS011;4690;52.422;13.486;2022-10-22T12:26:58;10.82;;;6.90;;
9304;SDS011;4690;52.422;13.486;2022-10-22T12:29:23;9.15;;;6.35;;
9304;SDS011;4690;52.422;13.486;2022-10-22T12:31:50;14.30;;;5.45;;
9304;SDS011;4690;52.422;13.486;2022-10-22T12:34:20;6.72;;;5.75;;
9304;SDS011;4690;52.422;13.486;2022-10-22T12:36:50;7.25;;;5.57;;
9304;SDS011;4690;52.422;13.486;2022-10-22T12:39:18;6.10;;;5.07;;
9304;SDS011;4690;52.422;13.486;2022-10-22T12:41:50;6.38;;;4.50;;
9304;SDS011;4690;52.422;13.486;2022-10-22T12:44:18;5.95;;;4.95;;
9304;SDS011;4690;52.422;13.486;2022-10-22T12:46:44;6.60;;;3.80;;
9304;SDS011;4690;52.422;13.486;2022-10-22T12:49:17;7.20;;;4.22;;
9304;SDS011;4690;52.422;13.486;2022-10-22T12:51:46;7.60;;;4.32;;
9304;SDS011;4690;52.422;13.486;2022-10-22T12:54:26;5.63;;;4.50;;
9304;SDS011;4690;52.422;13.486;2022-10-22T12:56:56;5.20;;;4.15;;
9304;SDS011;4690;52.422;13.486;2022-10-22T12:59:32;4.80;;;4.00;;
9304;SDS011;4690;52.422;13.486;2022-10-22T13:02:03;10.30;;;4.57;;
9304;SDS011;4690;52.422;13.486;2022-10-22T13:04:41;6.35;;;3.90;;
9304;SDS011;4690;52.422;13.486;2022-10-22T13:07:36;4.82;;;3.60;;
9304;SDS011;4690;52.422;13.486;2022-10-22T13:12:49;5.97;;;3.30;;
9304;SDS011;4690;52.422;13.486;2022-10-22T13:15:21;5.78;;;3.22;;
9304;SDS011;4690;52.422;13.486;2022-10-22T13:23:27;4.68;;;3.08;;
9304;SDS011;4690;52.422;13.486;2022-10-22T13:25:59;5.18;;;2.97;;
9304;SDS011;4690;52.422;13.486;2022-10-22T13:28:25;4.70;;;2.90;;
9304;SDS011;4690;52.422;13.486;2022-10-22T13:30:54;5.15;;;2.88;;
9304;SDS011;4690;52.422;13.486;2022-10-22T13:33:31;4.53;;;2.80;;
9304;SDS011;4690;52.422;13.486;2022-10-22T13:36:02;4.07;;;3.20;;
9304;SDS011;4690;52.422;13.486;2022-10-22T13:38:29;4.32;;;2.78;;
9304;SDS011;4690;52.422;13.486;2022-10-22T13:40:55;4.30;;;2.75;;
9304;SDS011;4690;52.422;13.486;2022-10-22T13:43:23;3.90;;;2.75;;
9304;SDS011;4690;52.422;13.486;2022-10-22T13:45:58;5.32;;;3.13;;
9304;SDS011;4690;52.422;13.486;2022-10-22T13:48:25;6.30;;;3.85;;
9304;SDS011;4690;52.422;13.486;2022-10-22T13:50:54;5.75;;;2.85;;
9304;SDS011;4690;52.422;13.486;2022-10-22T13:53:20;5.15;;;3.20;;
9304;SDS011;4690;52.422;13.486;2022-10-22T13:55:50;3.97;;;2.92;;
9304;SDS011;4690;52.422;13.486;2022-10-22T13:58:19;4.72;;;2.85;;
9304;SDS011;4690;52.422;13.486;2022-10-22T14:00:50;5.57;;;2.90;;
9304;SDS011;4690;52.422;13.486;2022-10-22T14:03:24;6.95;;;3.20;;
9304;SDS011;4690;52.422;13.486;2022-10-22T14:05:55;6.30;;;3.10;;
9304;SDS011;4690;52.422;13.486;2022-10-22T14:08:22;5.75;;;3.10;;
9304;SDS011;4690;52.422;13.486;2022-10-22T14:10:50;6.32;;;3.15;;
9304;SDS011;4690;52.422;13.486;2022-10-22T14:13:17;7.80;;;2.88;;
9304;SDS011;4690;52.422;13.486;2022-10-22T14:15:44;6.78;;;3.40;;
9304;SDS011;4690;52.422;13.486;2022-10-22T14:18:14;5.97;;;3.03;;
9304;SDS011;4690;52.422;13.486;2022-10-22T14:20:51;5.93;;;2.95;;
9304;SDS011;4690;52.422;13.486;2022-10-22T14:23:21;4.47;;;3.00;;
9304;SDS011;4690;52.422;13.486;2022-10-22T14:25:51;5.32;;;3.38;;
9304;SDS011;4690;52.422;13.486;2022-10-22T14:28:18;4.95;;;3.30;;
9304;SDS011;4690;52.422;13.486;2022-10-22T14:30:44;7.07;;;3.10;;
9304;SDS011;4690;52.422;13.486;2022-10-22T14:33:15;6.43;;;3.13;;
9304;SDS011;4690;52.422;13.486;2022-10-22T14:35:44;5.82;;;3.03;;
9304;SDS011;4690;52.422;13.486;2022-10-22T14:38:12;3.47;;;2.38;;
9304;SDS011;4690;52.422;13.486;2022-10-22T14:40:39;8.73;;;3.33;;
9304;SDS011;4690;52.422;13.486;2022-10-22T14:43:09;4.43;;;2.75;;
9304;SDS011;4690;52.422;13.486;2022-10-22T14:45:40;3.47;;;2.20;;
9304;SDS011;4690;52.422;13.486;2022-10-22T14:48:06;9.18;;;2.90;;
9304;SDS011;4690;52.422;13.486;2022-10-22T14:50:32;8.00;;;2.95;;
9304;SDS011;4690;52.422;13.486;2022-10-22T14:52:58;4.43;;;2.30;;
9304;SDS011;4690;52.422;13.486;2022-10-22T14:55:24;3.22;;;2.30;;
9304;SDS011;4690;52.422;13.486;2022-10-22T14:57:51;3.30;;;2.33;;
9304;SDS011;4690;52.422;13.486;2022-10-22T15:00:18;4.13;;;2.42;;
9304;SDS011;4690;52.422;13.486;2022-10-22T15:02:45;7.18;;;2.70;;
9304;SDS011;4690;52.422;13.486;2022-10-22T15:05:13;5.90;;;2.70;;
9304;SDS011;4690;52.422;13.486;2022-10-22T15:07:41;4.28;;;2.80;;
9304;SDS011;4690;52.422;13.486;2022-10-22T15:10:08;6.13;;;2.90;;
9304;SDS011;4690;52.422;13.486;2022-10-22T15:12:34;5.00;;;2.63;;
9304;SDS011;4690;52.422;13.486;2022-10-22T15:15:00;6.70;;;3.15;;
9304;SDS011;4690;52.422;13.486;2022-10-22T15:17:26;6.35;;;3.28;;
9304;SDS011;4690;52.422;13.486;2022-10-22T15:19:52;3.92;;;3.20;;
9304;SDS011;4690;52.422;13.486;2022-10-22T15:22:20;8.73;;;3.03;;
9304;SDS011;4690;52.422;13.486;2022-10-22T15:24:46;5.13;;;3.20;;
9304;SDS011;4690;52.422;13.486;2022-10-22T15:27:13;5.90;;;3.30;;
9304;SDS011;4690;52.422;13.486;2022-10-22T15:29:40;4.85;;;3.10;;
9304;SDS011;4690;52.422;13.486;2022-10-22T15:32:07;6.90;;;4.32;;
9304;SDS011;4690;52.422;13.486;2022-10-22T15:34:37;5.38;;;4.03;;
9304;SDS011;4690;52.422;13.486;2022-10-22T15:37:05;5.78;;;4.30;;
9304;SDS011;4690;52.422;13.486;2022-10-22T15:39:33;6.07;;;4.20;;
9304;SDS011;4690;52.422;13.486;2022-10-22T15:42:02;7.60;;;4.47;;
9304;SDS011;4690;52.422;13.486;2022-10-22T15:44:31;6.20;;;3.90;;
9304;SDS011;4690;52.422;13.486;2022-10-22T15:46:57;6.20;;;4.10;;
9304;SDS011;4690;52.422;13.486;2022-10-22T15:49:24;6.82;;;4.55;;
9304;SDS011;4690;52.422;13.486;2022-10-22T15:51:52;5.45;;;3.92;;
9304;SDS011;4690;52.422;13.486;2022-10-22T15:54:20;5.70;;;3.92;;
9304;SDS011;4690;52.422;13.486;2022-10-22T15:56:49;8.45;;;4.03;;
9304;SDS011;4690;52.422;13.486;2022-10-22T15:59:16;7.38;;;4.00;;
9304;SDS011;4690;52.422;13.486;2022-10-22T16:01:42;6.05;;;3.88;;
9304;SDS011;4690;52.422;13.486;2022-10-22T16:04:08;6.97;;;4.10;;
9304;SDS011;4690;52.422;13.486;2022-10-22T16:06:36;7.43;;;3.90;;
9304;SDS011;4690;52.422;13.486;2022-10-22T16:09:06;7.93;;;4.28;;
9304;SDS011;4690;52.422;13.486;2022-10-22T16:11:42;7.88;;;5.38;;
9304;SDS011;4690;52.422;13.486;2022-10-22T16:14:09;6.07;;;4.70;;
9304;SDS011;4690;52.422;13.486;2022-10-22T16:16:40;7.72;;;6.45;;
9304;SDS011;4690;52.422;13.486;2022-10-22T16:19:12;10.13;;;5.30;;
9304;SDS011;4690;52.422;13.486;2022-10-22T16:21:40;12.32;;;6.50;;
9304;SDS011;4690;52.422;13.486;2022-10-22T16:24:07;17.30;;;9.77;;
9304;SDS011;4690;52.422;13.486;2022-10-22T16:26:33;17.40;;;11.38;;
9304;SDS011;4690;52.422;13.486;2022-10-22T16:29:00;24.38;;;16.38;;
9304;SDS011;4690;52.422;13.486;2022-10-22T16:31:26;25.85;;;16.15;;
9304;SDS011;4690;52.422;13.486;2022-10-22T16:33:52;24.30;;;16.25;;
9304;SDS011;4690;52.422;13.486;2022-10-22T16:36:19;21.20;;;14.57;;
9304;SDS011;4690;52.422;13.486;2022-10-22T16:38:45;23.02;;;13.95;;
9304;SDS011;4690;52.422;13.486;2022-10-22T16:41:16;16.10;;;10.63;;
9304;SDS011;4690;52.422;13.486;2022-10-22T16:43:45;12.93;;;8.80;;
9304;SDS011;4690;52.422;13.486;2022-10-22T16:46:15;13.63;;;9.75;;
9304;SDS011;4690;52.422;13.486;2022-10-22T16:48:50;9.38;;;7.47;;
9304;SDS011;4690;52.422;13.486;2022-10-22T16:51:18;10.70;;;8.05;;
9304;SDS011;4690;52.422;13.486;2022-10-22T16:53:46;7.95;;;6.70;;
9304;SDS011;4690;52.422;13.486;2022-10-22T16:56:14;11.32;;;7.60;;
9304;SDS011;4690;52.422;13.486;2022-10-22T16:58:45;16.90;;;13.55;;
9304;SDS011;4690;52.422;13.486;2022-10-22T17:01:16;9.65;;;8.55;;